Time;durP1;ratioP1;P1;durP2;ratioP2;P2;SDS_P1;SDS_P2;PMS_P1;PMS_P2;Temp;Humidity;BMP_temperature;BMP_pressure;BME280_temperature;BME280_humidity;BME280_pressure;Samples;Min_cycle;Max_cycle;Signal;HPM_P1;HPM_P2
2023/12/23 00:01:51;;;;;;;5.82;1.23;;;;;;;7.94;100.00;98160.34;4997490;28;20164;-80
2023/12/23 00:04:17;;;;;;;9.65;0.95;;;;;;;7.86;100.00;98163.25;4999548;28;20289;-78
2023/12/23 00:06:42;;;;;;;2.45;0.63;;;;;;;7.85;100.00;98143.53;5018661;28;20057;-79
2023/12/23 00:09:08;;;;;;;2.13;0.63;;;;;;;7.76;100.00;98170.84;4995627;28;20057;-79
2023/12/23 00:11:33;;;;;;;8.23;1.10;;;;;;;7.88;100.00;98197.00;4992262;28;20045;-78
2023/12/23 00:13:58;;;;;;;10.82;1.05;;;;;;;7.68;100.00;98161.09;5000411;28;20088;-80
2023/12/23 00:16:27;;;;;;;5.93;0.60;;;;;;;7.75;100.00;98175.38;5017763;28;20029;-80
2023/12/23 00:18:53;;;;;;;3.75;0.75;;;;;;;7.81;100.00;98206.91;5017497;28;20233;-79
2023/12/23 00:21:18;;;;;;;3.75;0.93;;;;;;;7.84;100.00;98211.91;5029690;28;20022;-80
2023/12/23 00:23:44;;;;;;;5.60;0.80;;;;;;;7.78;100.00;98214.56;5015896;28;20026;-79
2023/12/23 00:26:09;;;;;;;2.83;0.40;;;;;;;7.80;100.00;98215.19;5007673;28;20037;-80
2023/12/23 00:28:34;;;;;;;2.85;0.73;;;;;;;7.71;100.00;98189.47;5002999;28;20387;-80
2023/12/23 00:30:59;;;;;;;6.38;0.80;;;;;;;7.77;100.00;98210.22;4998068;28;20026;-79
2023/12/23 00:33:25;;;;;;;2.33;0.60;;;;;;;7.63;100.00;98185.91;4999214;28;20362;-80
2023/12/23 00:35:50;;;;;;;5.28;1.00;;;;;;;7.61;100.00;98176.38;5003220;28;20045;-80
2023/12/23 00:38:15;;;;;;;2.78;0.68;;;;;;;7.87;100.00;98216.88;5008626;28;20029;-79
2023/12/23 00:40:40;;;;;;;6.75;1.00;;;;;;;7.87;100.00;98221.44;5003270;28;20046;-80
2023/12/23 00:43:06;;;;;;;5.15;1.08;;;;;;;7.91;100.00;98225.38;5011626;28;20450;-79
2023/12/23 00:45:31;;;;;;;4.20;0.98;;;;;;;7.64;100.00;98184.88;5013210;28;20056;-79
2023/12/23 00:47:56;;;;;;;6.47;0.77;;;;;;;7.82;100.00;98219.34;5019237;28;20068;-81
2023/12/23 00:50:22;;;;;;;2.58;0.57;;;;;;;7.84;100.00;98221.84;5001927;28;20112;-79
2023/12/23 00:52:47;;;;;;;4.35;0.95;;;;;;;7.69;100.00;98198.56;5017273;28;20389;-80
2023/12/23 00:55:12;;;;;;;2.72;0.70;;;;;;;7.86;100.00;98233.25;5001628;28;20030;-79
2023/12/23 00:57:38;;;;;;;1.90;0.68;;;;;;;7.81;100.00;98236.53;5016939;28;20021;-80
2023/12/23 01:00:04;;;;;;;2.15;0.47;;;;;;;7.69;100.00;98228.19;5023541;28;20049;-81
2023/12/23 01:02:29;;;;;;;5.82;1.10;;;;;;;7.77;100.00;98258.69;4997501;28;20061;-79
2023/12/23 01:04:54;;;;;;;5.05;1.17;;;;;;;7.54;100.00;98222.09;4998005;28;20026;-79
2023/12/23 01:07:20;;;;;;;2.92;0.73;;;;;;;7.78;100.00;98271.97;4993249;28;20026;-80
2023/12/23 01:09:45;;;;;;;6.20;0.88;;;;;;;7.54;100.00;98242.78;5017012;28;20030;-79
2023/12/23 01:12:10;;;;;;;4.72;1.17;;;;;;;7.39;100.00;98277.91;4999911;28;20034;-80
2023/12/23 01:14:36;;;;;;;4.35;0.80;;;;;;;7.55;100.00;98274.91;5003714;28;20422;-79
2023/12/23 01:17:01;;;;;;;5.68;1.25;;;;;;;7.51;100.00;98283.56;5001611;28;20093;-79
2023/12/23 01:19:26;;;;;;;4.35;0.75;;;;;;;7.41;100.00;98283.91;4999330;28;20068;-79
2023/12/23 01:21:52;;;;;;;4.57;0.98;;;;;;;7.40;100.00;98303.78;5000383;28;20026;-79
2023/12/23 01:24:17;;;;;;;3.58;0.75;;;;;;;7.43;100.00;98298.00;5035245;28;20125;-79
2023/12/23 01:26:42;;;;;;;5.28;0.80;;;;;;;7.40;100.00;98290.34;5001271;28;20034;-79
2023/12/23 01:29:07;;;;;;;2.75;0.80;;;;;;;7.47;100.00;98312.75;5018397;28;20029;-78
2023/12/23 01:31:33;;;;;;;4.80;1.65;;;;;;;7.35;100.00;98287.38;5011283;28;20032;-79
2023/12/23 01:33:58;;;;;;;3.63;1.13;;;;;;;7.36;100.00;98279.13;5003954;28;20030;-80
2023/12/23 01:36:23;;;;;;;4.88;1.20;;;;;;;7.46;100.00;98306.50;4994700;28;20026;-79
2023/12/23 01:38:49;;;;;;;6.55;1.10;;;;;;;7.53;100.00;98319.22;5017955;28;20033;-79
2023/12/23 01:41:14;;;;;;;5.20;0.90;;;;;;;7.45;100.00;98315.63;5000729;28;20030;-80
2023/12/23 01:43:39;;;;;;;6.35;1.08;;;;;;;7.33;100.00;98298.34;5000880;28;20113;-79
2023/12/23 01:46:05;;;;;;;5.30;1.02;;;;;;;7.47;100.00;98308.19;5019242;28;20105;-79
2023/12/23 01:48:41;;;;;;;4.03;0.90;;;;;;;7.64;100.00;98340.19;5010908;28;20029;-79
2023/12/23 01:51:08;;;;;;;1.90;0.70;;;;;;;7.53;100.00;98320.03;5008443;28;20061;-79
2023/12/23 01:53:34;;;;;;;5.28;1.00;;;;;;;7.57;100.00;98329.41;5002391;28;20397;-79
2023/12/23 01:56:00;;;;;;;9.00;1.33;;;;;;;7.53;100.00;98344.25;5000689;28;20040;-81
2023/12/23 01:58:26;;;;;;;8.05;1.42;;;;;;;7.58;100.00;98324.84;5018502;28;20061;-80
2023/12/23 02:00:51;;;;;;;8.93;1.45;;;;;;;7.41;100.00;98314.38;5010596;28;20061;-79
2023/12/23 02:03:17;;;;;;;7.00;1.02;;;;;;;7.39;100.00;98318.28;5025255;28;20022;-80
2023/12/23 02:05:45;;;;;;;3.13;1.08;;;;;;;7.56;100.00;98333.09;5021251;28;20034;-79
2023/12/23 02:08:10;;;;;;;9.00;1.25;;;;;;;7.45;100.00;98298.66;5021434;28;20029;-79
2023/12/23 02:10:36;;;;;;;6.22;1.13;;;;;;;7.59;100.00;98321.94;5037304;22;20457;-77
2023/12/23 02:13:16;;;;;;;5.32;1.38;;;;;;;7.72;100.00;98326.56;5031749;28;20121;-75
2023/12/23 02:15:45;;;;;;;6.60;1.08;;;;;;;7.58;100.00;98312.19;5036393;28;20037;-76
2023/12/23 02:18:11;;;;;;;;;;;;;;;7.67;100.00;98313.69;5034509;28;20032;-75
2023/12/23 02:20:36;;;;;;;10.15;1.20;;;;;;;7.54;100.00;98300.16;5038170;28;19913;-76
2023/12/23 02:23:01;;;;;;;4.50;0.88;;;;;;;7.61;100.00;98311.81;5045822;28;20096;-76
2023/12/23 02:25:27;;;;;;;9.35;1.02;;;;;;;7.68;100.00;98328.84;5053864;28;20067;-76
2023/12/23 02:28:03;;;;;;;9.70;1.13;;;;;;;7.61;100.00;98294.81;5041111;28;20067;-76
2023/12/23 02:30:29;;;;;;;11.02;1.10;;;;;;;7.80;100.00;98317.53;5031839;28;20017;-76
2023/12/23 02:32:55;;;;;;;5.35;0.90;;;;;;;7.74;100.00;98302.16;5052853;28;20048;-76
2023/12/23 02:35:26;;;;;;;10.98;1.20;;;;;;;7.67;100.00;98305.63;5053043;28;20060;-76
2023/12/23 02:37:52;;;;;;;9.50;1.00;;;;;;;7.81;100.00;98319.19;5053241;28;20031;-75
2023/12/23 02:40:17;;;;;;;3.97;0.90;;;;;;;7.69;100.00;98300.88;5029436;28;20029;-76
2023/12/23 02:42:42;;;;;;;8.05;0.90;;;;;;;7.73;100.00;98316.63;5045019;28;20373;-76
2023/12/23 02:45:08;;;;;;;11.05;1.38;;;;;;;7.74;100.00;98319.16;5031722;28;20056;-76
2023/12/23 02:47:33;;;;;;;4.07;0.90;;;;;;;7.85;100.00;98333.91;5022187;28;20030;-77
2023/12/23 02:49:58;;;;;;;2.95;0.70;;;;;;;7.73;100.00;98322.03;5019890;28;20484;-76
2023/12/23 02:52:24;;;;;;;6.78;0.80;;;;;;;7.77;100.00;98326.00;5053323;28;20025;-76
2023/12/23 02:54:49;;;;;;;8.45;1.65;;;;;;;7.83;100.00;98333.28;5053210;28;20040;-75
2023/12/23 02:57:14;;;;;;;6.03;0.80;;;;;;;7.87;100.00;98337.25;5053399;28;20480;-75
2023/12/23 02:59:40;;;;;;;8.38;1.10;;;;;;;7.79;100.00;98310.47;5052753;28;20037;-75
2023/12/23 03:02:05;;;;;;;8.10;1.58;;;;;;;7.71;100.00;98289.94;5052704;28;20025;-75
2023/12/23 03:04:32;;;;;;;8.27;1.10;;;;;;;7.73;100.00;98292.41;5034944;28;20032;-75
2023/12/23 03:06:58;;;;;;;5.78;1.05;;;;;;;7.86;100.00;98355.28;5051500;28;20033;-76
2023/12/23 03:09:23;;;;;;;9.30;1.08;;;;;;;7.90;100.00;98328.78;5035181;28;20551;-75
2023/12/23 03:11:49;;;;;;;10.23;1.13;;;;;;;7.82;100.00;98313.59;5049637;28;20032;-76
2023/12/23 03:14:15;;;;;;;4.93;0.93;;;;;;;7.91;100.00;98330.44;5052772;28;20047;-76
2023/12/23 03:16:40;;;;;;;3.28;0.70;;;;;;;7.92;100.00;98331.28;5051976;28;20480;-76
2023/12/23 03:19:05;;;;;;;4.68;1.02;;;;;;;7.93;100.00;98325.69;5035273;28;20669;-76
2023/12/23 03:21:31;;;;;;;7.60;1.77;;;;;;;7.96;100.00;98344.13;5052343;28;20108;-76
2023/12/23 03:23:56;;;;;;;8.60;1.52;;;;;;;7.91;100.00;98346.59;5052808;28;20025;-75
2023/12/23 03:26:22;;;;;;;4.18;1.02;;;;;;;7.78;100.00;98330.34;5052533;28;20032;-76
2023/12/23 03:28:47;;;;;;;4.72;1.45;;;;;;;7.62;100.00;98291.09;5047481;28;20025;-76
2023/12/23 03:31:13;;;;;;;5.28;1.13;;;;;;;7.85;100.00;98345.50;5042780;28;20108;-75
2023/12/23 03:33:40;;;;;;;7.13;1.02;;;;;;;7.75;100.00;98328.88;5036778;28;20017;-75
2023/12/23 03:36:06;;;;;;;4.30;1.00;;;;;;;7.75;100.00;98347.72;5034460;28;20039;-75
2023/12/23 03:38:31;;;;;;;7.68;1.80;;;;;;;7.82;100.00;98339.72;5034030;28;20025;-76
2023/12/23 03:40:56;;;;;;;4.32;0.90;;;;;;;7.69;100.00;98335.88;5046249;28;20550;-76
2023/12/23 03:43:22;;;;;;;6.35;1.00;;;;;;;7.70;100.00;98339.41;5015000;28;20021;-76
2023/12/23 03:45:47;;;;;;;4.97;0.80;;;;;;;7.61;100.00;98336.03;5032592;28;20041;-76
2023/12/23 03:48:12;;;;;;;8.57;1.20;;;;;;;7.70;100.00;98352.88;5036607;28;20504;-76
2023/12/23 03:50:37;;;;;;;4.93;1.38;;;;;;;7.66;100.00;98344.34;5034763;28;20029;-77
2023/12/23 03:53:03;;;;;;;4.22;1.23;;;;;;;7.63;100.00;98347.44;5033288;28;20025;-77
2023/12/23 03:55:34;;;;;;;4.53;1.10;;;;;;;7.65;100.00;98350.78;5023016;28;20113;-76
2023/12/23 03:58:00;;;;;;;4.63;1.00;;;;;;;7.56;100.00;98322.31;5051908;28;20036;-77
2023/12/23 04:00:26;;;;;;;5.05;1.17;;;;;;;7.68;100.00;98341.47;5051386;28;20021;-76
2023/12/23 04:02:51;;;;;;;4.45;0.98;;;;;;;7.67;100.00;98329.84;5044784;28;20022;-76
2023/12/23 04:05:17;;;;;;;4.65;1.08;;;;;;;7.68;100.00;98336.94;5042104;28;20026;-76
2023/12/23 04:07:42;;;;;;;4.63;1.08;;;;;;;7.69;100.00;98340.44;5021374;28;20024;-77
2023/12/23 04:10:07;;;;;;;4.65;1.00;;;;;;;7.53;100.00;98316.50;5052224;28;20035;-77
2023/12/23 04:12:33;;;;;;;5.38;0.90;;;;;;;7.62;100.00;98326.09;5032255;28;20025;-76
2023/12/23 04:14:58;;;;;;;5.35;0.90;;;;;;;7.58;100.00;98311.38;5014825;28;20492;-75
2023/12/23 04:17:23;;;;;;;5.25;0.80;;;;;;;7.60;100.00;98328.16;5034596;28;20104;-76
2023/12/23 04:19:50;;;;;;;3.95;0.80;;;;;;;7.67;100.00;98343.31;5014379;28;20029;-76
2023/12/23 04:22:15;;;;;;;12.02;1.40;;;;;;;7.52;100.00;98326.47;5029637;28;20028;-76
2023/12/23 04:24:41;;;;;;;5.53;1.20;;;;;;;7.51;100.00;98337.41;5050814;28;20021;-76
2023/12/23 04:27:06;;;;;;;7.25;1.10;;;;;;;7.51;100.00;98324.78;5015283;28;20034;-76
2023/12/23 04:29:32;;;;;;;10.35;1.60;;;;;;;7.47;100.00;98347.75;5043217;28;20068;-77
2023/12/23 04:31:57;;;;;;;5.78;1.40;;;;;;;7.39;100.00;98316.41;5051347;28;20099;-76
2023/12/23 04:34:22;;;;;;;10.93;1.35;;;;;;;7.56;100.00;98335.78;5034061;28;20021;-76
2023/12/23 04:36:48;;;;;;;6.57;1.25;;;;;;;7.50;100.00;98323.13;5051741;28;20040;-76
2023/12/23 04:39:13;;;;;;;4.03;1.00;;;;;;;7.54;100.00;98329.75;5051583;28;20166;-76
2023/12/23 04:41:46;;;;;;;6.32;1.45;;;;;;;7.35;100.00;98298.16;5038293;28;20025;-76
2023/12/23 04:44:12;;;;;;;7.22;1.30;;;;;;;7.58;100.00;98328.34;5048462;28;20029;-76
2023/12/23 04:46:37;;;;;;;4.28;1.02;;;;;;;7.59;100.00;98321.94;5049591;28;20086;-76
2023/12/23 04:49:02;;;;;;;7.93;1.23;;;;;;;7.54;100.00;98323.56;5035027;28;20481;-76
2023/12/23 04:51:28;;;;;;;5.93;1.58;;;;;;;7.53;100.00;98340.75;5026452;28;20025;-76
2023/12/23 04:53:53;;;;;;;6.47;1.23;;;;;;;7.53;100.00;98332.66;5050502;28;20029;-76
2023/12/23 04:56:19;;;;;;;5.65;1.20;;;;;;;7.46;100.00;98329.91;5037593;28;20029;-76
2023/12/23 04:58:44;;;;;;;5.97;1.10;;;;;;;7.53;100.00;98349.66;5054431;28;20108;-76
2023/12/23 05:01:09;;;;;;;6.13;1.48;;;;;;;7.44;100.00;98319.34;5044842;28;20124;-76
2023/12/23 05:03:35;;;;;;;9.88;1.35;;;;;;;7.58;100.00;98336.44;5046923;28;20055;-76
2023/12/23 05:06:00;;;;;;;4.20;1.08;;;;;;;7.52;100.00;98323.75;5030246;28;20024;-77
2023/12/23 05:08:27;;;;;;;2.25;0.80;;;;;;;7.61;100.00;98336.03;5055323;28;20056;-77
2023/12/23 05:10:52;;;;;;;3.55;0.95;;;;;;;7.56;100.00;98325.03;5055069;28;20029;-76
2023/12/23 05:13:18;;;;;;;8.27;1.48;;;;;;;7.65;100.00;98358.84;5050817;28;20032;-76
2023/12/23 05:15:43;;;;;;;3.88;1.15;;;;;;;7.55;100.00;98306.38;5054611;28;20052;-76
2023/12/23 05:18:09;;;;;;;4.97;1.05;;;;;;;7.43;100.00;98285.38;5055412;28;20442;-77
2023/12/23 05:20:34;;;;;;;6.22;1.08;;;;;;;7.65;100.00;98314.94;5049466;28;20557;-76
2023/12/23 05:22:59;;;;;;;2.47;0.73;;;;;;;7.63;100.00;98323.22;5037347;28;20049;-76
2023/12/23 05:25:24;;;;;;;7.15;1.10;;;;;;;7.49;100.00;98299.06;5049636;28;20540;-77
2023/12/23 05:27:50;;;;;;;2.38;0.70;;;;;;;7.63;100.00;98327.78;5044030;28;20033;-77
2023/12/23 05:30:15;;;;;;;5.05;1.52;;;;;;;7.54;100.00;98324.38;5037049;28;20392;-78
2023/12/23 05:32:41;;;;;;;6.03;1.08;;;;;;;7.59;100.00;98330.00;5035519;28;20033;-75
2023/12/23 05:35:06;;;;;;;7.22;1.40;;;;;;;7.51;100.00;98323.94;5046751;28;20032;-76
2023/12/23 05:37:33;;;;;;;6.88;1.20;;;;;;;7.60;100.00;98342.47;5032761;28;20025;-76
2023/12/23 05:39:58;;;;;;;4.80;1.45;;;;;;;7.52;100.00;98322.91;5045882;28;20029;-76
2023/12/23 05:42:25;;;;;;;2.25;0.70;;;;;;;7.64;100.00;98346.41;5035160;28;20043;-76
2023/12/23 05:44:50;;;;;;;4.15;0.98;;;;;;;7.62;100.00;98361.94;5054945;28;20041;-76
2023/12/23 05:47:16;;;;;;;2.17;0.85;;;;;;;7.36;100.00;98345.56;5024593;28;20021;-80
2023/12/23 05:49:42;;;;;;;5.00;0.70;;;;;;;7.47;100.00;98356.66;5054782;28;20032;-75
2023/12/23 05:52:07;;;;;;;1.88;0.80;;;;;;;7.38;100.00;98356.97;5051606;28;20021;-79
2023/12/23 05:54:33;;;;;;;4.10;1.30;;;;;;;7.26;100.00;98353.97;5037906;28;20049;-78
2023/12/23 05:56:58;;;;;;;3.25;0.80;;;;;;;7.21;100.00;98351.88;5037623;28;20041;-79
2023/12/23 05:59:24;;;;;;;4.05;0.73;;;;;;;7.04;100.00;98358.50;5054845;28;20392;-76
2023/12/23 06:01:50;;;;;;;2.13;0.85;;;;;;;7.00;100.00;98368.00;5058152;28;20075;-77
2023/12/23 06:04:15;;;;;;;6.57;1.02;;;;;;;6.95;100.00;98348.91;5042741;28;20606;-76
2023/12/23 06:06:40;;;;;;;1.70;0.70;;;;;;;7.02;100.00;98341.72;5049433;28;20016;-77
2023/12/23 06:09:06;;;;;;;2.33;0.85;;;;;;;6.90;100.00;98332.53;5051992;28;20025;-77
2023/12/23 06:11:31;;;;;;;1.52;0.50;;;;;;;6.92;100.00;98341.25;5040768;28;20029;-77
2023/12/23 06:13:57;;;;;;;1.05;0.60;;;;;;;6.99;100.00;98344.81;5034238;28;20033;-76
2023/12/23 06:16:22;;;;;;;1.80;0.50;;;;;;;7.01;100.00;98318.56;5050786;28;20031;-77
2023/12/23 06:18:47;;;;;;;2.88;0.60;;;;;;;7.11;100.00;98345.97;5030974;28;20091;-76
2023/12/23 06:21:13;;;;;;;1.02;0.40;;;;;;;7.10;100.00;98328.19;5053078;28;20120;-78
2023/12/23 06:23:38;;;;;;;2.40;0.50;;;;;;;7.13;100.00;98338.53;5032556;28;20484;-76
2023/12/23 06:26:03;;;;;;;2.80;0.60;;;;;;;7.19;100.00;98336.94;5053970;28;20120;-76
2023/12/23 06:28:28;;;;;;;4.00;0.60;;;;;;;7.16;100.00;98337.31;5055655;28;20025;-75
2023/12/23 06:30:54;;;;;;;3.00;0.80;;;;;;;7.21;100.00;98338.41;5035522;28;20028;-76
2023/12/23 06:33:19;;;;;;;1.20;0.52;;;;;;;7.18;100.00;98328.03;5040349;28;20079;-76
2023/12/23 06:35:44;;;;;;;1.13;0.52;;;;;;;7.19;100.00;98320.78;5052773;28;20476;-75
2023/12/23 06:38:10;;;;;;;3.20;0.63;;;;;;;7.25;100.00;98317.31;5044252;28;20609;-76
2023/12/23 06:40:35;;;;;;;1.25;0.50;;;;;;;7.17;100.00;98310.22;5034163;28;20119;-76
2023/12/23 06:43:00;;;;;;;1.90;0.43;;;;;;;7.29;100.00;98312.41;5053134;28;20033;-76
2023/12/23 06:45:26;;;;;;;1.00;0.55;;;;;;;7.22;100.00;98294.31;5046573;28;20041;-76
2023/12/23 06:47:51;;;;;;;0.75;0.50;;;;;;;7.18;100.00;98298.44;5045855;28;20913;-75
2023/12/23 06:50:16;;;;;;;0.82;0.50;;;;;;;7.21;100.00;98297.22;5045813;28;20075;-75
2023/12/23 06:52:42;;;;;;;1.58;0.55;;;;;;;7.27;100.00;98296.44;5045659;28;20024;-74
2023/12/23 06:55:07;;;;;;;1.05;0.52;;;;;;;7.26;100.00;98321.69;5034598;28;20473;-74
2023/12/23 06:57:33;;;;;;;1.10;0.50;;;;;;;7.29;100.00;98290.88;5050517;28;20057;-75
2023/12/23 06:59:59;;;;;;;1.27;0.70;;;;;;;7.33;100.00;98327.13;5036565;28;20025;-75
2023/12/23 07:02:25;;;;;;;2.30;0.45;;;;;;;7.29;100.00;98328.53;5039582;28;20483;-76
2023/12/23 07:04:50;;;;;;;1.60;0.70;;;;;;;7.09;100.00;98304.97;5043480;28;20056;-75
2023/12/23 07:07:16;;;;;;;1.92;0.73;;;;;;;7.22;100.00;98321.22;5035530;28;20068;-75
2023/12/23 07:09:41;;;;;;;0.88;0.50;;;;;;;7.35;100.00;98327.75;5035080;28;20024;-74
2023/12/23 07:12:08;;;;;;;3.15;0.65;;;;;;;7.35;100.00;98317.00;5030495;28;20021;-75
2023/12/23 07:14:33;;;;;;;2.53;0.80;;;;;;;7.36;100.00;98316.81;5049325;28;20472;-75
2023/12/23 07:16:59;;;;;;;4.22;0.70;;;;;;;7.32;100.00;98306.63;5043555;28;20065;-75
2023/12/23 07:19:24;;;;;;;2.08;0.50;;;;;;;7.43;100.00;98333.00;5049819;28;20043;-75
2023/12/23 07:21:53;;;;;;;1.67;0.50;;;;;;;7.40;100.00;98311.84;5032529;28;20396;-74
2023/12/23 07:24:19;;;;;;;0.75;0.50;;;;;;;7.41;100.00;98321.59;5049335;28;20037;-77
2023/12/23 07:26:44;;;;;;;1.42;0.50;;;;;;;7.33;100.00;98319.03;5035793;28;20071;-77
2023/12/23 07:29:09;;;;;;;1.70;0.50;;;;;;;7.38;100.00;98319.28;5035537;28;20510;-78
2023/12/23 07:31:34;;;;;;;2.65;0.55;;;;;;;7.39;100.00;98339.81;5049519;28;20024;-78
2023/12/23 07:34:00;;;;;;;1.50;0.50;;;;;;;7.28;100.00;98322.31;5050314;28;20031;-77
2023/12/23 07:36:25;;;;;;;4.38;0.40;;;;;;;7.34;100.00;98312.66;5035349;28;20427;-77
2023/12/23 07:38:50;;;;;;;1.48;0.50;;;;;;;7.42;100.00;98339.41;5043081;28;20033;-77
2023/12/23 07:41:16;;;;;;;1.17;0.52;;;;;;;7.33;100.00;98329.81;5030699;28;20436;-76
2023/12/23 07:43:41;;;;;;;1.23;0.47;;;;;;;7.32;100.00;98336.22;5051635;28;20024;-77
2023/12/23 07:46:07;;;;;;;0.20;0.20;;;;;;;7.42;100.00;98352.88;5043965;28;20120;-76
2023/12/23 07:48:32;;;;;;;0.75;0.15;;;;;;;7.29;100.00;98328.53;5041740;28;20053;-76
2023/12/23 07:50:57;;;;;;;1.80;0.28;;;;;;;7.31;100.00;98340.78;5021819;28;20028;-78
2023/12/23 07:53:23;;;;;;;1.17;0.20;;;;;;;7.20;100.00;98342.13;5030592;28;20139;-74
2023/12/23 07:55:48;;;;;;;0.25;0.20;;;;;;;7.23;100.00;98332.81;5050458;28;20016;-75
2023/12/23 07:58:13;;;;;;;0.75;0.30;;;;;;;7.28;100.00;98334.94;5051084;28;20021;-74
2023/12/23 08:00:38;;;;;;;1.83;0.20;;;;;;;7.25;100.00;98336.97;5052683;28;22511;-75
2023/12/23 08:03:04;;;;;;;0.25;0.10;;;;;;;7.36;100.00;98349.09;5040723;28;20111;-75
2023/12/23 08:05:34;;;;;;;0.68;0.30;;;;;;;7.41;100.00;98352.03;5048563;28;20385;-75
2023/12/23 08:07:59;;;;;;;2.50;0.22;;;;;;;7.39;100.00;98343.31;5036508;28;20549;-75
2023/12/23 08:10:25;;;;;;;1.38;0.40;;;;;;;7.44;100.00;98348.09;5047463;28;20029;-75
2023/12/23 08:12:50;;;;;;;0.60;0.20;;;;;;;7.39;100.00;98339.81;5040341;28;20075;-75
2023/12/23 08:15:15;;;;;;;1.67;0.10;;;;;;;7.38;100.00;98330.88;5017733;28;20025;-75
2023/12/23 08:17:41;;;;;;;1.55;0.43;;;;;;;7.58;100.00;98333.75;5039772;28;20136;-75
2023/12/23 08:20:06;;;;;;;1.45;0.17;;;;;;;7.52;100.00;98326.47;5037333;28;20021;-76
2023/12/23 08:22:33;;;;;;;2.10;0.32;;;;;;;7.61;100.00;98336.03;5081164;22;20044;-78
2023/12/23 08:24:58;;;;;;;2.63;0.75;;;;;;;7.58;100.00;98333.75;5054971;28;20026;-78
2023/12/23 08:27:24;;;;;;;0.88;0.28;;;;;;;7.44;100.00;98303.22;5060607;28;20024;-78
2023/12/23 08:29:49;;;;;;;1.63;0.20;;;;;;;7.55;100.00;98326.06;5053879;28;20165;-78
2023/12/23 08:32:15;;;;;;;0.15;0.10;;;;;;;7.58;100.00;98324.84;5071320;28;20558;-78
2023/12/23 08:34:40;;;;;;;0.10;0.03;;;;;;;7.50;100.00;98317.75;5042120;28;20024;-78
2023/12/23 08:37:05;;;;;;;0.05;0.05;;;;;;;7.61;100.00;98352.19;5066927;28;20025;-83
2023/12/23 08:39:31;;;;;;;0.38;0.20;;;;;;;7.59;100.00;98332.69;5069709;28;20372;-78
2023/12/23 08:41:56;;;;;;;0.65;0.20;;;;;;;7.56;100.00;98337.66;5043431;28;20377;-79
2023/12/23 08:44:21;;;;;;;0.10;0.10;;;;;;;7.50;100.00;98304.28;5050740;28;20025;-79
2023/12/23 08:46:46;;;;;;;0.38;0.10;;;;;;;7.71;100.00;98302.56;5071844;28;20071;-77
2023/12/23 08:49:12;;;;;;;0.82;0.10;;;;;;;7.58;100.00;98304.13;5070659;28;20582;-77
2023/12/23 08:51:38;;;;;;;0.98;0.28;;;;;;;7.66;100.00;98316.59;5073530;28;20020;-78
2023/12/23 08:54:04;;;;;;;0.55;0.10;;;;;;;7.63;100.00;98308.94;5062281;28;20491;-79
2023/12/23 08:56:29;;;;;;;0.88;0.50;;;;;;;7.70;100.00;98304.41;5052805;28;20036;-79
2023/12/23 08:58:54;;;;;;;0.32;0.10;;;;;;;7.81;100.00;98320.03;5054255;28;20020;-79
2023/12/23 09:01:20;;;;;;;1.58;0.10;;;;;;;7.90;100.00;98313.44;5051542;28;20066;-79
2023/12/23 09:03:45;;;;;;;0.20;0.10;;;;;;;7.80;100.00;98298.66;5053744;28;20025;-79
2023/12/23 09:06:12;;;;;;;0.88;0.17;;;;;;;7.81;100.00;98300.34;5048709;28;20028;-79
2023/12/23 09:08:38;;;;;;;0.20;0.10;;;;;;;7.89;100.00;98314.47;5070784;28;20111;-76
2023/12/23 09:11:04;;;;;;;0.47;0.10;;;;;;;7.96;100.00;98322.59;5046540;28;20024;-78
2023/12/23 09:13:30;;;;;;;0.57;0.17;;;;;;;7.95;100.00;98320.94;5048496;28;20020;-78
2023/12/23 09:15:55;;;;;;;0.28;0.10;;;;;;;7.95;100.00;98310.16;5048585;28;20558;-78
2023/12/23 09:18:21;;;;;;;0.52;0.10;;;;;;;7.96;100.00;98316.38;5049196;28;20058;-80
2023/12/23 09:20:46;;;;;;;0.95;0.20;;;;;;;7.89;100.00;98325.25;5048252;28;20055;-79
2023/12/23 09:23:11;;;;;;;0.30;0.10;;;;;;;8.05;100.00;98340.25;5047412;28;20021;-77
2023/12/23 09:25:37;;;;;;;0.57;0.13;;;;;;;7.92;100.00;98331.28;5055622;28;20032;-76
2023/12/23 09:28:03;;;;;;;1.50;0.28;;;;;;;7.98;100.00;98320.53;5053117;28;20100;-77
2023/12/23 09:30:28;;;;;;;0.57;0.10;;;;;;;7.94;100.00;98340.84;5063078;28;20035;-77
2023/12/23 09:32:53;;;;;;;0.10;0.00;;;;;;;8.00;100.00;98337.34;5050165;28;20020;-77
2023/12/23 09:35:18;;;;;;;0.85;0.57;;;;;;;8.13;100.00;98350.88;5050426;28;20475;-78
2023/12/23 09:37:45;;;;;;;0.65;0.20;;;;;;;8.14;100.00;98351.69;5047847;28;20028;-77
2023/12/23 09:40:12;;;;;;;1.15;0.10;;;;;;;7.92;100.00;98309.72;5049940;28;20039;-78
2023/12/23 09:42:38;;;;;;;0.52;0.10;;;;;;;7.84;100.00;98281.91;5051625;28;20020;-77
2023/12/23 09:45:04;;;;;;;0.80;0.30;;;;;;;8.12;100.00;98306.13;5043479;28;20480;-78
2023/12/23 09:47:30;;;;;;;0.00;0.00;;;;;;;8.24;100.00;98335.19;5054638;28;20021;-77
2023/12/23 09:49:55;;;;;;;0.25;0.05;;;;;;;8.05;100.00;98334.06;5051462;28;20024;-76
2023/12/23 09:52:21;;;;;;;0.55;0.10;;;;;;;8.10;100.00;98318.13;5070181;28;20027;-76
2023/12/23 09:54:51;;;;;;;0.08;0.08;;;;;;;8.23;100.00;98333.53;5057777;28;20645;-77
2023/12/23 09:57:18;;;;;;;0.10;0.05;;;;;;;8.30;100.00;98331.69;5051654;28;20039;-80
2023/12/23 09:59:43;;;;;;;0.28;0.10;;;;;;;8.41;100.00;98343.78;5047840;28;20079;-77
2023/12/23 10:02:09;;;;;;;0.35;0.10;;;;;;;8.26;100.00;98290.00;5055721;28;20020;-77
2023/12/23 10:04:34;;;;;;;0.10;0.10;;;;;;;8.47;100.00;98319.56;5057564;28;20028;-77
2023/12/23 10:07:00;;;;;;;2.55;0.47;;;;;;;8.49;100.00;98332.84;5056059;28;20056;-77
2023/12/23 10:09:30;;;;;;;0.22;0.05;;;;;;;8.30;100.00;98323.59;5049606;28;20020;-78
2023/12/23 10:11:55;;;;;;;0.25;0.10;;;;;;;8.41;100.00;98319.50;5055818;28;20023;-78
2023/12/23 10:14:22;;;;;;;0.40;0.20;;;;;;;8.29;100.00;98322.75;5061527;28;20028;-77
2023/12/23 10:16:47;;;;;;;0.45;0.10;;;;;;;8.28;100.00;98304.13;5049742;28;20032;-77
2023/12/23 10:19:12;;;;;;;0.10;0.00;;;;;;;8.44;100.00;98341.53;5045769;28;20069;-77
2023/12/23 10:21:40;;;;;;;0.68;0.10;;;;;;;8.31;100.00;98334.19;5073557;28;20380;-78
2023/12/23 10:24:06;;;;;;;0.10;0.00;;;;;;;8.22;100.00;98267.16;5055846;28;20119;-77
2023/12/23 10:26:32;;;;;;;0.20;0.08;;;;;;;8.34;100.00;98314.91;5056055;28;20595;-82
2023/12/23 10:29:03;;;;;;;0.70;0.32;;;;;;;8.39;100.00;98340.44;5046391;28;20115;-77
2023/12/23 10:31:31;;;;;;;0.20;0.10;;;;;;;8.26;100.00;98327.72;5069531;28;20029;-77
2023/12/23 10:34:00;;;;;;;1.00;0.10;;;;;;;8.13;100.00;98318.53;5055496;28;20028;-78
2023/12/23 10:36:26;;;;;;;;;;;;;;;8.26;100.00;98298.91;5048876;28;20017;-78
2023/12/23 10:39:02;;;;;;;0.13;0.00;;;;;;;8.18;100.00;98331.44;5051506;28;20055;-77
2023/12/23 10:41:43;;;;;;;1.17;0.13;;;;;;;8.16;100.00;98317.31;5051961;28;20408;-78
2023/12/23 10:44:09;;;;;;;0.45;0.10;;;;;;;8.26;100.00;98331.25;5071264;28;20572;-77
2023/12/23 10:46:34;;;;;;;0.00;0.00;;;;;;;8.30;100.00;98321.72;5071747;28;20040;-82
2023/12/23 10:49:00;;;;;;;0.10;0.10;;;;;;;8.14;100.00;98297.81;5047352;28;20028;-78
2023/12/23 10:51:26;;;;;;;0.08;0.08;;;;;;;8.30;100.00;98319.03;5073194;28;20395;-77
2023/12/23 10:53:53;;;;;;;0.20;0.00;;;;;;;8.42;100.00;98343.59;5035957;28;20024;-77
2023/12/23 10:56:20;;;;;;;0.10;0.08;;;;;;;8.21;100.00;98317.53;5049654;28;20073;-78
2023/12/23 10:58:45;;;;;;;0.30;0.10;;;;;;;8.36;100.00;98322.81;5070038;28;20353;-76
2023/12/23 11:01:12;;;;;;;0.22;0.10;;;;;;;8.21;100.00;98314.84;5071916;28;20038;-77
2023/12/23 11:03:38;;;;;;;1.65;0.10;;;;;;;8.23;100.00;98341.63;5049818;28;20025;-78
2023/12/23 11:06:07;;;;;;;0.17;0.05;;;;;;;8.19;100.00;98330.38;5063805;28;20029;-78
2023/12/23 11:08:33;;;;;;;0.20;0.10;;;;;;;8.24;100.00;98332.47;5068248;28;20029;-77
2023/12/23 11:10:59;;;;;;;0.55;0.10;;;;;;;8.22;100.00;98327.28;5070972;28;20020;-79
2023/12/23 11:13:26;;;;;;;0.10;0.00;;;;;;;8.31;100.00;98349.53;5044434;28;20173;-77
2023/12/23 11:15:53;;;;;;;0.10;0.00;;;;;;;8.08;100.00;98347.13;5054623;28;20033;-77
2023/12/23 11:18:21;;;;;;;0.00;0.00;;;;;;;8.20;100.00;98341.97;5072584;28;20095;-80
2023/12/23 11:20:49;;;;;;;0.13;0.10;;;;;;;8.01;100.00;98301.28;5053886;28;20025;-80
2023/12/23 11:23:30;;;;;;;1.40;0.10;;;;;;;8.15;100.00;98310.28;5072267;28;20414;-78
2023/12/23 11:25:56;;;;;;;0.10;0.10;;;;;;;8.21;100.00;98335.59;5055142;28;20037;-78
2023/12/23 11:28:24;;;;;;;0.10;0.00;;;;;;;8.17;100.00;98350.47;5049698;28;20031;-78